sensor_id;sensor_type;location;lat;lon;timestamp;temperature;humidity
3281;DHT22;1652;51.31805600;6.20194400;2023-12-20T00:02:17;7.20;99.90
3281;DHT22;1652;51.31805600;6.20194400;2023-12-20T00:04:44;7.20;99.90
3281;DHT22;1652;51.31805600;6.20194400;2023-12-20T00:07:11;7.30;99.90
3281;DHT22;1652;51.31805600;6.20194400;2023-12-20T00:09:39;7.30;99.90
3281;DHT22;1652;51.31805600;6.20194400;2023-12-20T00:12:06;7.30;99.90
3281;DHT22;1652;51.31805600;6.20194400;2023-12-20T00:14:33;7.40;99.90
3281;DHT22;1652;51.31805600;6.20194400;2023-12-20T00:17:00;7.40;99.90
3281;DHT22;1652;51.31805600;6.20194400;2023-12-20T00:19:27;7.40;99.90
3281;DHT22;1652;51.31805600;6.20194400;2023-12-20T00:21:54;7.40;99.90
3281;DHT22;1652;51.31805600;6.20194400;2023-12-20T00:24:21;7.40;99.90
3281;DHT22;1652;51.31805600;6.20194400;2023-12-20T00:26:48;7.40;99.90
3281;DHT22;1652;51.31805600;6.20194400;2023-12-20T00:29:14;7.40;99.90
3281;DHT22;1652;51.31805600;6.20194400;2023-12-20T00:31:41;7.30;99.90
3281;DHT22;1652;51.31805600;6.20194400;2023-12-20T00:34:08;7.30;99.90
3281;DHT22;1652;51.31805600;6.20194400;2023-12-20T00:36:36;7.40;99.90
3281;DHT22;1652;51.31805600;6.20194400;2023-12-20T00:39:03;7.40;99.90
3281;DHT22;1652;51.31805600;6.20194400;2023-12-20T00:41:31;7.50;99.90
3281;DHT22;1652;51.31805600;6.20194400;2023-12-20T00:43:58;7.40;99.90
3281;DHT22;1652;51.31805600;6.20194400;2023-12-20T00:46:25;7.40;99.90
3281;DHT22;1652;51.31805600;6.20194400;2023-12-20T00:48:52;7.40;99.90
3281;DHT22;1652;51.31805600;6.20194400;2023-12-20T00:51:19;7.50;99.90
3281;DHT22;1652;51.31805600;6.20194400;2023-12-20T00:53:46;7.50;99.90
3281;DHT22;1652;51.31805600;6.20194400;2023-12-20T00:56:16;7.40;53.70
3281;DHT22;1652;51.31805600;6.20194400;2023-12-20T00:58:43;7.40;35.50
3281;DHT22;1652;51.31805600;6.20194400;2023-12-20T01:01:10;7.40;32.70
3281;DHT22;1652;51.31805600;6.20194400;2023-12-20T01:03:37;7.20;1.00
3281;DHT22;1652;51.31805600;6.20194400;2023-12-20T01:06:05;7.10;1.00
3281;DHT22;1652;51.31805600;6.20194400;2023-12-20T01:08:32;7.00;1.00
3281;DHT22;1652;51.31805600;6.20194400;2023-12-20T01:11:04;7.00;1.00
3281;DHT22;1652;51.31805600;6.20194400;2023-12-20T01:13:31;7.00;1.00
3281;DHT22;1652;51.31805600;6.20194400;2023-12-20T01:15:58;6.90;1.00
3281;DHT22;1652;51.31805600;6.20194400;2023-12-20T01:18:25;6.90;1.00
3281;DHT22;1652;51.31805600;6.20194400;2023-12-20T01:20:51;6.90;1.00
3281;DHT22;1652;51.31805600;6.20194400;2023-12-20T01:23:18;6.80;1.00
3281;DHT22;1652;51.31805600;6.20194400;2023-12-20T01:25:45;6.60;1.00
3281;DHT22;1652;51.31805600;6.20194400;2023-12-20T01:28:12;6.60;1.00
3281;DHT22;1652;51.31805600;6.20194400;2023-12-20T01:30:39;6.50;1.00
3281;DHT22;1652;51.31805600;6.20194400;2023-12-20T01:33:06;6.40;1.00
3281;DHT22;1652;51.31805600;6.20194400;2023-12-20T01:35:33;6.30;1.00
3281;DHT22;1652;51.31805600;6.20194400;2023-12-20T01:38:00;6.30;1.00
3281;DHT22;1652;51.31805600;6.20194400;2023-12-20T01:40:27;6.20;1.00
3281;DHT22;1652;51.31805600;6.20194400;2023-12-20T01:43:02;6.10;1.00
3281;DHT22;1652;51.31805600;6.20194400;2023-12-20T01:45:29;6.10;1.00
3281;DHT22;1652;51.31805600;6.20194400;2023-12-20T01:47:57;6.10;5.70
3281;DHT22;1652;51.31805600;6.20194400;2023-12-20T01:50:25;5.90;1.00
3281;DHT22;1652;51.31805600;6.20194400;2023-12-20T01:52:55;5.90;9.60
3281;DHT22;1652;51.31805600;6.20194400;2023-12-20T01:55:25;5.90;38.60
3281;DHT22;1652;51.31805600;6.20194400;2023-12-20T01:57:54;6.00;76.00
3281;DHT22;1652;51.31805600;6.20194400;2023-12-20T02:00:21;6.00;90.60
3281;DHT22;1652;51.31805600;6.20194400;2023-12-20T02:02:50;5.90;26.70
3281;DHT22;1652;51.31805600;6.20194400;2023-12-20T02:05:19;5.80;33.30
3281;DHT22;1652;51.31805600;6.20194400;2023-12-20T02:07:46;5.80;40.10
3281;DHT22;1652;51.31805600;6.20194400;2023-12-20T02:10:14;5.80;64.10
3281;DHT22;1652;51.31805600;6.20194400;2023-12-20T02:12:42;5.80;72.10
3281;DHT22;1652;51.31805600;6.20194400;2023-12-20T02:15:09;5.70;22.10
3281;DHT22;1652;51.31805600;6.20194400;2023-12-20T02:17:38;5.70;28.70
3281;DHT22;1652;51.31805600;6.20194400;2023-12-20T02:20:06;5.70;42.20
3281;DHT22;1652;51.31805600;6.20194400;2023-12-20T02:22:34;5.70;77.60
3281;DHT22;1652;51.31805600;6.20194400;2023-12-20T02:25:00;5.70;36.60
3281;DHT22;1652;51.31805600;6.20194400;2023-12-20T02:27:28;5.70;10.00
3281;DHT22;1652;51.31805600;6.20194400;2023-12-20T02:29:56;5.60;6.30
3281;DHT22;1652;51.31805600;6.20194400;2023-12-20T02:32:24;5.60;25.00
3281;DHT22;1652;51.31805600;6.20194400;2023-12-20T02:34:53;5.60;20.50
3281;DHT22;1652;51.31805600;6.20194400;2023-12-20T02:37:20;5.60;31.70
3281;DHT22;1652;51.31805600;6.20194400;2023-12-20T02:39:47;5.50;54.90
3281;DHT22;1652;51.31805600;6.20194400;2023-12-20T02:42:14;5.60;34.70
3281;DHT22;1652;51.31805600;6.20194400;2023-12-20T02:44:41;5.60;44.00
3281;DHT22;1652;51.31805600;6.20194400;2023-12-20T02:47:08;5.50;27.20
3281;DHT22;1652;51.31805600;6.20194400;2023-12-20T02:49:35;5.70;37.80
3281;DHT22;1652;51.31805600;6.20194400;2023-12-20T02:52:02;5.60;29.60
3281;DHT22;1652;51.31805600;6.20194400;2023-12-20T02:54:29;5.60;31.80
3281;DHT22;1652;51.31805600;6.20194400;2023-12-20T02:56:56;5.70;42.50
3281;DHT22;1652;51.31805600;6.20194400;2023-12-20T02:59:23;5.80;98.10
3281;DHT22;1652;51.31805600;6.20194400;2023-12-20T03:01:50;5.80;17.20
3281;DHT22;1652;51.31805600;6.20194400;2023-12-20T03:04:17;5.80;1.00
3281;DHT22;1652;51.31805600;6.20194400;2023-12-20T03:06:44;5.70;1.00
3281;DHT22;1652;51.31805600;6.20194400;2023-12-20T03:09:11;5.80;30.00
3281;DHT22;1652;51.31805600;6.20194400;2023-12-20T03:11:38;5.80;58.50
3281;DHT22;1652;51.31805600;6.20194400;2023-12-20T03:14:05;5.90;70.60
3281;DHT22;1652;51.31805600;6.20194400;2023-12-20T03:16:32;5.90;1.00
3281;DHT22;1652;51.31805600;6.20194400;2023-12-20T03:19:02;5.90;12.30
3281;DHT22;1652;51.31805600;6.20194400;2023-12-20T03:21:29;5.80;1.00
3281;DHT22;1652;51.31805600;6.20194400;2023-12-20T03:23:56;5.80;1.00
3281;DHT22;1652;51.31805600;6.20194400;2023-12-20T03:26:23;5.80;1.00
3281;DHT22;1652;51.31805600;6.20194400;2023-12-20T03:28:50;5.80;3.70
3281;DHT22;1652;51.31805600;6.20194400;2023-12-20T03:31:17;5.70;1.00
3281;DHT22;1652;51.31805600;6.20194400;2023-12-20T03:33:44;5.70;15.50
3281;DHT22;1652;51.31805600;6.20194400;2023-12-20T03:36:11;5.60;25.00
3281;DHT22;1652;51.31805600;6.20194400;2023-12-20T03:38:38;5.60;38.40
3281;DHT22;1652;51.31805600;6.20194400;2023-12-20T03:41:06;5.60;35.50
3281;DHT22;1652;51.31805600;6.20194400;2023-12-20T03:43:33;5.60;16.30
3281;DHT22;1652;51.31805600;6.20194400;2023-12-20T03:46:00;5.60;61.40
3281;DHT22;1652;51.31805600;6.20194400;2023-12-20T03:48:27;5.60;42.50
3281;DHT22;1652;51.31805600;6.20194400;2023-12-20T03:50:54;5.50;8.00
3281;DHT22;1652;51.31805600;6.20194400;2023-12-20T03:53:21;5.50;50.40
3281;DHT22;1652;51.31805600;6.20194400;2023-12-20T03:55:48;5.50;8.00
3281;DHT22;1652;51.31805600;6.20194400;2023-12-20T03:58:15;5.50;22.60
3281;DHT22;1652;51.31805600;6.20194400;2023-12-20T04:00:42;5.50;1.00
3281;DHT22;1652;51.31805600;6.20194400;2023-12-20T04:03:09;5.40;1.00
3281;DHT22;1652;51.31805600;6.20194400;2023-12-20T04:05:36;5.40;13.90
3281;DHT22;1652;51.31805600;6.20194400;2023-12-20T04:08:03;5.40;26.60
3281;DHT22;1652;51.31805600;6.20194400;2023-12-20T04:10:31;5.50;99.90
3281;DHT22;1652;51.31805600;6.20194400;2023-12-20T04:12:57;5.40;6.30
3281;DHT22;1652;51.31805600;6.20194400;2023-12-20T04:15:24;5.40;5.40
3281;DHT22;1652;51.31805600;6.20194400;2023-12-20T04:17:51;5.40;10.00
3281;DHT22;1652;51.31805600;6.20194400;2023-12-20T04:20:18;5.40;1.00
3281;DHT22;1652;51.31805600;6.20194400;2023-12-20T04:22:45;5.40;62.30
3281;DHT22;1652;51.31805600;6.20194400;2023-12-20T04:25:12;5.40;23.50
3281;DHT22;1652;51.31805600;6.20194400;2023-12-20T04:27:39;5.50;31.00
3281;DHT22;1652;51.31805600;6.20194400;2023-12-20T04:30:08;5.50;99.90
3281;DHT22;1652;51.31805600;6.20194400;2023-12-20T04:32:35;5.60;55.50
3281;DHT22;1652;51.31805600;6.20194400;2023-12-20T04:35:03;5.50;32.00
3281;DHT22;1652;51.31805600;6.20194400;2023-12-20T04:37:30;5.50;27.90
3281;DHT22;1652;51.31805600;6.20194400;2023-12-20T04:39:57;5.60;16.10
3281;DHT22;1652;51.31805600;6.20194400;2023-12-20T04:42:24;5.60;17.10
3281;DHT22;1652;51.31805600;6.20194400;2023-12-20T04:44:51;5.60;1.00
3281;DHT22;1652;51.31805600;6.20194400;2023-12-20T04:47:17;5.60;12.40
3281;DHT22;1652;51.31805600;6.20194400;2023-12-20T04:49:44;5.60;1.00
3281;DHT22;1652;51.31805600;6.20194400;2023-12-20T04:52:11;5.60;1.00
3281;DHT22;1652;51.31805600;6.20194400;2023-12-20T04:54:38;5.60;3.40
3281;DHT22;1652;51.31805600;6.20194400;2023-12-20T04:57:09;5.70;8.00
3281;DHT22;1652;51.31805600;6.20194400;2023-12-20T04:59:36;5.70;34.50
3281;DHT22;1652;51.31805600;6.20194400;2023-12-20T05:02:03;5.70;2.80
3281;DHT22;1652;51.31805600;6.20194400;2023-12-20T05:04:30;5.70;1.00
3281;DHT22;1652;51.31805600;6.20194400;2023-12-20T05:06:57;5.70;1.00
3281;DHT22;1652;51.31805600;6.20194400;2023-12-20T05:09:24;5.70;3.70
3281;DHT22;1652;51.31805600;6.20194400;2023-12-20T05:11:50;5.70;1.00
3281;DHT22;1652;51.31805600;6.20194400;2023-12-20T05:14:17;5.80;1.00
3281;DHT22;1652;51.31805600;6.20194400;2023-12-20T05:16:44;5.80;1.00
3281;DHT22;1652;51.31805600;6.20194400;2023-12-20T05:19:11;5.80;1.00
3281;DHT22;1652;51.31805600;6.20194400;2023-12-20T05:21:38;5.80;1.00
3281;DHT22;1652;51.31805600;6.20194400;2023-12-20T05:24:05;5.90;1.00
3281;DHT22;1652;51.31805600;6.20194400;2023-12-20T05:26:32;5.90;1.00
3281;DHT22;1652;51.31805600;6.20194400;2023-12-20T05:28:59;5.90;1.00
3281;DHT22;1652;51.31805600;6.20194400;2023-12-20T05:31:26;5.90;1.00
3281;DHT22;1652;51.31805600;6.20194400;2023-12-20T05:33:53;6.00;1.00
3281;DHT22;1652;51.31805600;6.20194400;2023-12-20T05:36:20;6.00;1.00
3281;DHT22;1652;51.31805600;6.20194400;2023-12-20T05:38:47;6.00;1.00
3281;DHT22;1652;51.31805600;6.20194400;2023-12-20T05:41:14;6.00;1.00
3281;DHT22;1652;51.31805600;6.20194400;2023-12-20T05:43:40;6.00;1.00
3281;DHT22;1652;51.31805600;6.20194400;2023-12-20T05:46:10;6.10;1.00
3281;DHT22;1652;51.31805600;6.20194400;2023-12-20T05:48:38;6.10;1.00
3281;DHT22;1652;51.31805600;6.20194400;2023-12-20T05:51:05;6.10;1.00
3281;DHT22;1652;51.31805600;6.20194400;2023-12-20T05:53:32;6.10;1.00
3281;DHT22;1652;51.31805600;6.20194400;2023-12-20T05:55:58;6.10;1.00
3281;DHT22;1652;51.31805600;6.20194400;2023-12-20T05:58:26;6.20;1.00
3281;DHT22;1652;51.31805600;6.20194400;2023-12-20T06:00:53;6.30;1.00
3281;DHT22;1652;51.31805600;6.20194400;2023-12-20T06:03:20;6.30;1.00
3281;DHT22;1652;51.31805600;6.20194400;2023-12-20T06:05:47;6.30;1.00
3281;DHT22;1652;51.31805600;6.20194400;2023-12-20T06:08:14;6.30;1.00
3281;DHT22;1652;51.31805600;6.20194400;2023-12-20T06:10:41;6.40;1.00
3281;DHT22;1652;51.31805600;6.20194400;2023-12-20T06:13:08;6.30;1.00
3281;DHT22;1652;51.31805600;6.20194400;2023-12-20T06:15:35;6.30;1.00
3281;DHT22;1652;51.31805600;6.20194400;2023-12-20T06:18:02;6.30;1.00
3281;DHT22;1652;51.31805600;6.20194400;2023-12-20T06:20:30;6.30;1.00
3281;DHT22;1652;51.31805600;6.20194400;2023-12-20T06:22:57;6.30;1.00
3281;DHT22;1652;51.31805600;6.20194400;2023-12-20T06:25:24;6.40;1.00
3281;DHT22;1652;51.31805600;6.20194400;2023-12-20T06:27:51;6.40;1.00
3281;DHT22;1652;51.31805600;6.20194400;2023-12-20T06:30:18;6.40;1.00
3281;DHT22;1652;51.31805600;6.20194400;2023-12-20T06:32:45;6.40;1.00
3281;DHT22;1652;51.31805600;6.20194400;2023-12-20T06:35:13;6.40;1.00
3281;DHT22;1652;51.31805600;6.20194400;2023-12-20T06:37:40;6.50;1.00
3281;DHT22;1652;51.31805600;6.20194400;2023-12-20T06:40:10;6.50;1.00
3281;DHT22;1652;51.31805600;6.20194400;2023-12-20T06:42:44;6.50;1.00
3281;DHT22;1652;51.31805600;6.20194400;2023-12-20T06:45:24;6.50;1.00
3281;DHT22;1652;51.31805600;6.20194400;2023-12-20T06:47:51;6.50;1.00
3281;DHT22;1652;51.31805600;6.20194400;2023-12-20T06:50:18;6.60;1.00
3281;DHT22;1652;51.31805600;6.20194400;2023-12-20T06:52:45;6.50;99.90
3281;DHT22;1652;51.31805600;6.20194400;2023-12-20T06:55:12;6.50;99.90
3281;DHT22;1652;51.31805600;6.20194400;2023-12-20T06:57:39;6.60;99.90
3281;DHT22;1652;51.31805600;6.20194400;2023-12-20T07:00:06;6.60;99.90
3281;DHT22;1652;51.31805600;6.20194400;2023-12-20T07:02:33;6.60;99.90
3281;DHT22;1652;51.31805600;6.20194400;2023-12-20T07:05:01;6.60;99.90
3281;DHT22;1652;51.31805600;6.20194400;2023-12-20T07:07:28;6.60;99.90
3281;DHT22;1652;51.31805600;6.20194400;2023-12-20T07:09:55;6.60;99.90
3281;DHT22;1652;51.31805600;6.20194400;2023-12-20T07:12:22;6.60;99.90
3281;DHT22;1652;51.31805600;6.20194400;2023-12-20T07:14:48;6.60;99.90
3281;DHT22;1652;51.31805600;6.20194400;2023-12-20T07:17:15;6.60;93.10
3281;DHT22;1652;51.31805600;6.20194400;2023-12-20T07:19:42;6.60;99.90
3281;DHT22;1652;51.31805600;6.20194400;2023-12-20T07:22:09;6.60;58.00
3281;DHT22;1652;51.31805600;6.20194400;2023-12-20T07:24:36;6.60;99.90
3281;DHT22;1652;51.31805600;6.20194400;2023-12-20T07:27:03;6.60;99.90
3281;DHT22;1652;51.31805600;6.20194400;2023-12-20T07:29:30;6.60;63.00
3281;DHT22;1652;51.31805600;6.20194400;2023-12-20T07:31:57;6.60;99.90
3281;DHT22;1652;51.31805600;6.20194400;2023-12-20T07:34:24;6.50;83.40
3281;DHT22;1652;51.31805600;6.20194400;2023-12-20T07:36:51;6.50;99.90
3281;DHT22;1652;51.31805600;6.20194400;2023-12-20T07:39:18;6.50;99.90
3281;DHT22;1652;51.31805600;6.20194400;2023-12-20T07:41:45;6.50;99.90
3281;DHT22;1652;51.31805600;6.20194400;2023-12-20T07:44:12;6.50;99.90
3281;DHT22;1652;51.31805600;6.20194400;2023-12-20T07:49:11;6.50;97.40
3281;DHT22;1652;51.31805600;6.20194400;2023-12-20T07:51:38;6.40;44.30
3281;DHT22;1652;51.31805600;6.20194400;2023-12-20T07:54:05;6.40;99.90
3281;DHT22;1652;51.31805600;6.20194400;2023-12-20T07:56:31;6.40;99.90
3281;DHT22;1652;51.31805600;6.20194400;2023-12-20T07:58:58;6.40;99.90
3281;DHT22;1652;51.31805600;6.20194400;2023-12-20T08:01:26;6.40;1.00
3281;DHT22;1652;51.31805600;6.20194400;2023-12-20T08:03:53;6.30;46.30
3281;DHT22;1652;51.31805600;6.20194400;2023-12-20T08:06:21;6.40;99.90
3281;DHT22;1652;51.31805600;6.20194400;2023-12-20T08:08:48;6.30;1.70
3281;DHT22;1652;51.31805600;6.20194400;2023-12-20T08:11:27;6.40;99.90
3281;DHT22;1652;51.31805600;6.20194400;2023-12-20T08:13:54;6.40;69.40
3281;DHT22;1652;51.31805600;6.20194400;2023-12-20T08:16:21;6.40;99.90
3281;DHT22;1652;51.31805600;6.20194400;2023-12-20T08:18:47;6.40;97.40
3281;DHT22;1652;51.31805600;6.20194400;2023-12-20T08:21:14;6.30;1.00
3281;DHT22;1652;51.31805600;6.20194400;2023-12-20T08:23:41;6.30;1.00
3281;DHT22;1652;51.31805600;6.20194400;2023-12-20T08:26:08;6.30;1.00
3281;DHT22;1652;51.31805600;6.20194400;2023-12-20T08:28:36;6.20;1.00
3281;DHT22;1652;51.31805600;6.20194400;2023-12-20T08:31:03;6.20;99.90
3281;DHT22;1652;51.31805600;6.20194400;2023-12-20T08:33:30;6.40;99.90
3281;DHT22;1652;51.31805600;6.20194400;2023-12-20T08:35:58;6.40;7.00
3281;DHT22;1652;51.31805600;6.20194400;2023-12-20T08:38:25;6.40;1.00
3281;DHT22;1652;51.31805600;6.20194400;2023-12-20T08:40:51;6.30;1.00
3281;DHT22;1652;51.31805600;6.20194400;2023-12-20T08:43:18;6.40;1.00
3281;DHT22;1652;51.31805600;6.20194400;2023-12-20T08:45:45;6.40;1.00
3281;DHT22;1652;51.31805600;6.20194400;2023-12-20T08:48:12;6.40;1.00
3281;DHT22;1652;51.31805600;6.20194400;2023-12-20T08:50:39;6.50;1.00
3281;DHT22;1652;51.31805600;6.20194400;2023-12-20T08:53:07;6.50;1.00
3281;DHT22;1652;51.31805600;6.20194400;2023-12-20T08:55:34;6.50;1.00
3281;DHT22;1652;51.31805600;6.20194400;2023-12-20T08:58:01;6.60;1.00
3281;DHT22;1652;51.31805600;6.20194400;2023-12-20T09:00:27;6.60;1.00
3281;DHT22;1652;51.31805600;6.20194400;2023-12-20T09:02:55;6.70;1.00
3281;DHT22;1652;51.31805600;6.20194400;2023-12-20T09:05:21;6.70;1.00
3281;DHT22;1652;51.31805600;6.20194400;2023-12-20T09:07:49;6.70;1.00
3281;DHT22;1652;51.31805600;6.20194400;2023-12-20T09:10:16;6.80;1.00
3281;DHT22;1652;51.31805600;6.20194400;2023-12-20T09:12:53;6.80;1.00
3281;DHT22;1652;51.31805600;6.20194400;2023-12-20T09:15:24;6.80;99.90
3281;DHT22;1652;51.31805600;6.20194400;2023-12-20T09:17:52;6.70;99.90
3281;DHT22;1652;51.31805600;6.20194400;2023-12-20T09:20:19;6.80;1.00
3281;DHT22;1652;51.31805600;6.20194400;2023-12-20T09:22:47;6.90;1.00
3281;DHT22;1652;51.31805600;6.20194400;2023-12-20T09:25:14;7.00;1.00
3281;DHT22;1652;51.31805600;6.20194400;2023-12-20T09:27:42;7.00;99.90
3281;DHT22;1652;51.31805600;6.20194400;2023-12-20T09:30:10;7.00;99.90
3281;DHT22;1652;51.31805600;6.20194400;2023-12-20T09:32:37;7.10;99.90
3281;DHT22;1652;51.31805600;6.20194400;2023-12-20T09:35:04;7.00;99.90
3281;DHT22;1652;51.31805600;6.20194400;2023-12-20T09:37:33;7.10;99.90
3281;DHT22;1652;51.31805600;6.20194400;2023-12-20T09:40:00;7.20;99.90
3281;DHT22;1652;51.31805600;6.20194400;2023-12-20T09:45:04;7.20;99.90
3281;DHT22;1652;51.31805600;6.20194400;2023-12-20T09:47:33;7.20;1.00
3281;DHT22;1652;51.31805600;6.20194400;2023-12-20T09:50:01;7.20;29.10
3281;DHT22;1652;51.31805600;6.20194400;2023-12-20T09:52:29;7.20;99.90
3281;DHT22;1652;51.31805600;6.20194400;2023-12-20T09:54:57;7.20;17.20
3281;DHT22;1652;51.31805600;6.20194400;2023-12-20T09:57:24;7.10;74.70
3281;DHT22;1652;51.31805600;6.20194400;2023-12-20T09:59:51;7.10;99.90
3281;DHT22;1652;51.31805600;6.20194400;2023-12-20T10:02:19;7.20;99.90
3281;DHT22;1652;51.31805600;6.20194400;2023-12-20T10:04:50;7.20;99.90
3281;DHT22;1652;51.31805600;6.20194400;2023-12-20T10:07:17;7.30;6.80
3281;DHT22;1652;51.31805600;6.20194400;2023-12-20T10:09:44;7.40;22.00
3281;DHT22;1652;51.31805600;6.20194400;2023-12-20T10:12:11;7.40;1.00
3281;DHT22;1652;51.31805600;6.20194400;2023-12-20T10:14:39;7.40;1.00
3281;DHT22;1652;51.31805600;6.20194400;2023-12-20T10:17:06;7.40;1.00
3281;DHT22;1652;51.31805600;6.20194400;2023-12-20T10:19:33;7.40;1.00
3281;DHT22;1652;51.31805600;6.20194400;2023-12-20T10:22:01;7.40;1.00
3281;DHT22;1652;51.31805600;6.20194400;2023-12-20T10:24:28;7.40;1.00
3281;DHT22;1652;51.31805600;6.20194400;2023-12-20T10:27:06;7.40;1.00
3281;DHT22;1652;51.31805600;6.20194400;2023-12-20T10:29:37;7.50;1.00
3281;DHT22;1652;51.31805600;6.20194400;2023-12-20T10:32:27;7.50;1.00
3281;DHT22;1652;51.31805600;6.20194400;2023-12-20T10:34:55;7.50;1.00
3281;DHT22;1652;51.31805600;6.20194400;2023-12-20T10:37:23;7.50;1.00
3281;DHT22;1652;51.31805600;6.20194400;2023-12-20T10:39:52;7.50;1.00
3281;DHT22;1652;51.31805600;6.20194400;2023-12-20T10:42:23;7.60;1.00
3281;DHT22;1652;51.31805600;6.20194400;2023-12-20T10:44:51;7.60;1.00
3281;DHT22;1652;51.31805600;6.20194400;2023-12-20T10:47:20;7.60;1.00
3281;DHT22;1652;51.31805600;6.20194400;2023-12-20T10:49:47;7.60;1.00
3281;DHT22;1652;51.31805600;6.20194400;2023-12-20T10:52:17;7.50;1.00
3281;DHT22;1652;51.31805600;6.20194400;2023-12-20T10:54:44;7.40;1.00
3281;DHT22;1652;51.31805600;6.20194400;2023-12-20T10:57:11;7.50;1.00
3281;DHT22;1652;51.31805600;6.20194400;2023-12-20T10:59:39;7.50;1.00
3281;DHT22;1652;51.31805600;6.20194400;2023-12-20T11:02:07;7.50;1.00
3281;DHT22;1652;51.31805600;6.20194400;2023-12-20T11:05:10;7.60;1.00
3281;DHT22;1652;51.31805600;6.20194400;2023-12-20T11:07:45;7.50;1.00
3281;DHT22;1652;51.31805600;6.20194400;2023-12-20T11:10:21;7.60;1.00
3281;DHT22;1652;51.31805600;6.20194400;2023-12-20T11:13:01;7.70;1.00
3281;DHT22;1652;51.31805600;6.20194400;2023-12-20T11:15:38;7.60;1.00
3281;DHT22;1652;51.31805600;6.20194400;2023-12-20T11:18:05;7.70;1.00
3281;DHT22;1652;51.31805600;6.20194400;2023-12-20T11:20:40;7.70;1.00
3281;DHT22;1652;51.31805600;6.20194400;2023-12-20T11:23:10;7.70;1.00
3281;DHT22;1652;51.31805600;6.20194400;2023-12-20T11:25:54;7.80;1.00
3281;DHT22;1652;51.31805600;6.20194400;2023-12-20T11:28:24;7.80;1.00
3281;DHT22;1652;51.31805600;6.20194400;2023-12-20T11:30:56;7.80;1.00
3281;DHT22;1652;51.31805600;6.20194400;2023-12-20T11:33:24;7.90;1.00
3281;DHT22;1652;51.31805600;6.20194400;2023-12-20T11:35:56;8.00;99.90
3281;DHT22;1652;51.31805600;6.20194400;2023-12-20T11:38:24;7.90;1.00
3281;DHT22;1652;51.31805600;6.20194400;2023-12-20T11:40:53;8.00;99.90
3281;DHT22;1652;51.31805600;6.20194400;2023-12-20T11:43:31;8.00;1.00
3281;DHT22;1652;51.31805600;6.20194400;2023-12-20T11:46:06;8.00;1.00
3281;DHT22;1652;51.31805600;6.20194400;2023-12-20T11:48:38;8.00;99.90
3281;DHT22;1652;51.31805600;6.20194400;2023-12-20T11:51:14;7.90;1.00
3281;DHT22;1652;51.31805600;6.20194400;2023-12-20T11:53:41;7.90;99.90
3281;DHT22;1652;51.31805600;6.20194400;2023-12-20T11:56:11;7.70;1.00
3281;DHT22;1652;51.31805600;6.20194400;2023-12-20T11:58:39;7.80;1.00
3281;DHT22;1652;51.31805600;6.20194400;2023-12-20T12:01:06;7.80;1.00
3281;DHT22;1652;51.31805600;6.20194400;2023-12-20T12:03:35;7.80;42.10
3281;DHT22;1652;51.31805600;6.20194400;2023-12-20T12:06:02;7.90;1.00
3281;DHT22;1652;51.31805600;6.20194400;2023-12-20T12:08:32;7.90;1.00
3281;DHT22;1652;51.31805600;6.20194400;2023-12-20T12:10:59;7.90;1.00
3281;DHT22;1652;51.31805600;6.20194400;2023-12-20T12:13:26;7.90;1.00
3281;DHT22;1652;51.31805600;6.20194400;2023-12-20T12:15:54;7.90;1.00
3281;DHT22;1652;51.31805600;6.20194400;2023-12-20T12:18:21;8.00;1.00
3281;DHT22;1652;51.31805600;6.20194400;2023-12-20T12:20:48;8.00;1.00
3281;DHT22;1652;51.31805600;6.20194400;2023-12-20T12:23:23;8.10;1.00
3281;DHT22;1652;51.31805600;6.20194400;2023-12-20T12:25:51;8.00;1.00
3281;DHT22;1652;51.31805600;6.20194400;2023-12-20T12:28:19;8.00;1.00
3281;DHT22;1652;51.31805600;6.20194400;2023-12-20T12:30:59;7.90;99.90
3281;DHT22;1652;51.31805600;6.20194400;2023-12-20T12:33:26;7.90;1.00
3281;DHT22;1652;51.31805600;6.20194400;2023-12-20T12:35:54;7.90;1.00
3281;DHT22;1652;51.31805600;6.20194400;2023-12-20T12:38:22;7.80;99.90
3281;DHT22;1652;51.31805600;6.20194400;2023-12-20T12:40:50;7.70;1.00
3281;DHT22;1652;51.31805600;6.20194400;2023-12-20T12:43:17;7.90;1.00
3281;DHT22;1652;51.31805600;6.20194400;2023-12-20T12:45:44;7.90;1.00
3281;DHT22;1652;51.31805600;6.20194400;2023-12-20T12:48:11;7.90;1.00
3281;DHT22;1652;51.31805600;6.20194400;2023-12-20T12:50:38;7.90;1.00
3281;DHT22;1652;51.31805600;6.20194400;2023-12-20T12:53:05;7.90;1.00
3281;DHT22;1652;51.31805600;6.20194400;2023-12-20T12:55:32;8.00;1.00
3281;DHT22;1652;51.31805600;6.20194400;2023-12-20T12:57:59;8.00;1.00
3281;DHT22;1652;51.31805600;6.20194400;2023-12-20T13:00:26;7.90;1.00
3281;DHT22;1652;51.31805600;6.20194400;2023-12-20T13:02:53;7.80;1.00
3281;DHT22;1652;51.31805600;6.20194400;2023-12-20T13:05:20;7.70;1.00
3281;DHT22;1652;51.31805600;6.20194400;2023-12-20T13:07:47;7.70;1.00
3281;DHT22;1652;51.31805600;6.20194400;2023-12-20T13:10:15;7.70;29.80
3281;DHT22;1652;51.31805600;6.20194400;2023-12-20T13:12:43;7.70;1.00
3281;DHT22;1652;51.31805600;6.20194400;2023-12-20T13:15:10;7.70;47.80
3281;DHT22;1652;51.31805600;6.20194400;2023-12-20T13:17:37;7.60;99.90
3281;DHT22;1652;51.31805600;6.20194400;2023-12-20T13:20:05;7.60;99.60
3281;DHT22;1652;51.31805600;6.20194400;2023-12-20T13:22:33;7.60;99.90
3281;DHT22;1652;51.31805600;6.20194400;2023-12-20T13:25:00;7.60;99.90
3281;DHT22;1652;51.31805600;6.20194400;2023-12-20T13:27:27;7.60;99.90
3281;DHT22;1652;51.31805600;6.20194400;2023-12-20T13:29:54;7.50;99.90
3281;DHT22;1652;51.31805600;6.20194400;2023-12-20T13:32:21;7.50;99.90
3281;DHT22;1652;51.31805600;6.20194400;2023-12-20T13:34:49;7.50;99.90
3281;DHT22;1652;51.31805600;6.20194400;2023-12-20T13:37:16;7.60;99.90
3281;DHT22;1652;51.31805600;6.20194400;2023-12-20T13:39:43;7.60;99.90
3281;DHT22;1652;51.31805600;6.20194400;2023-12-20T13:42:10;7.60;20.50
3281;DHT22;1652;51.31805600;6.20194400;2023-12-20T13:44:37;7.60;37.40
3281;DHT22;1652;51.31805600;6.20194400;2023-12-20T13:47:05;7.60;89.40
3281;DHT22;1652;51.31805600;6.20194400;2023-12-20T13:49:33;7.70;1.00
3281;DHT22;1652;51.31805600;6.20194400;2023-12-20T13:52:00;7.70;1.00
3281;DHT22;1652;51.31805600;6.20194400;2023-12-20T13:54:27;7.80;1.00
3281;DHT22;1652;51.31805600;6.20194400;2023-12-20T13:56:53;7.70;1.00
3281;DHT22;1652;51.31805600;6.20194400;2023-12-20T13:59:37;7.70;1.00
3281;DHT22;1652;51.31805600;6.20194400;2023-12-20T14:02:05;7.70;1.00
3281;DHT22;1652;51.31805600;6.20194400;2023-12-20T14:04:32;7.70;1.00
3281;DHT22;1652;51.31805600;6.20194400;2023-12-20T14:07:10;7.80;1.00
3281;DHT22;1652;51.31805600;6.20194400;2023-12-20T14:09:39;7.80;1.00
3281;DHT22;1652;51.31805600;6.20194400;2023-12-20T14:12:12;7.80;1.00
3281;DHT22;1652;51.31805600;6.20194400;2023-12-20T14:14:39;7.80;1.00